Time;durP1;ratioP1;P1;durP2;ratioP2;P2;SDS_P1;SDS_P2;PMS_P1;PMS_P2;Temp;Humidity;BMP_temperature;BMP_pressure;BME280_temperature;BME280_humidity;BME280_pressure;Samples;Min_cycle;Max_cycle;Signal;HPM_P1;HPM_P2
2021/03/31 00:01:58;;;;;;;;;;;23.60;34.00;;;;;;1603756;73;744;-61
2021/03/31 00:04:00;;;;;;;;;;;23.60;33.90;;;;;;1598437;73;803;-62
2021/03/31 00:06:02;;;;;;;;;;;23.60;34.00;;;;;;1598269;73;743;-62
2021/03/31 00:08:04;;;;;;;;;;;23.60;34.10;;;;;;1601329;73;697;-61
2021/03/31 00:10:14;;;;;;;;;;;23.60;34.20;;;;;;1594364;73;1217;-61
2021/03/31 00:12:16;;;;;;;;;;;23.60;34.20;;;;;;1595432;73;1936;-62
2021/03/31 00:14:17;;;;;;;;;;;23.60;34.20;;;;;;1606764;73;756;-61
2021/03/31 00:16:19;;;;;;;;;;;23.60;34.20;;;;;;1596778;73;757;-61
2021/03/31 00:18:21;;;;;;;;;;;23.60;34.20;;;;;;1601079;73;1182;-64
2021/03/31 00:20:23;;;;;;;;;;;23.60;34.20;;;;;;1597987;73;769;-62
2021/03/31 00:22:25;;;;;;;;;;;23.70;34.40;;;;;;1608617;73;794;-60
2021/03/31 00:24:27;;;;;;;;;;;23.60;34.20;;;;;;1609816;73;740;-64
2021/03/31 00:26:29;;;;;;;;;;;23.60;34.20;;;;;;1597786;73;713;-62
2021/03/31 00:28:31;;;;;;;;;;;23.60;34.20;;;;;;1596552;73;1158;-61
2021/03/31 00:30:33;;;;;;;;;;;23.60;34.20;;;;;;1605475;73;727;-61
2021/03/31 00:32:35;;;;;;;;;;;23.60;34.20;;;;;;1593915;73;1937;-64
2021/03/31 00:34:37;;;;;;;;;;;23.60;34.20;;;;;;1601172;73;810;-61
2021/03/31 00:36:38;;;;;;;;;;;23.60;34.20;;;;;;1601680;73;697;-62
2021/03/31 00:38:40;;;;;;;;;;;23.50;34.20;;;;;;1592873;73;1166;-62
2021/03/31 00:40:43;;;;;;;;;;;23.50;34.30;;;;;;1592355;73;799;-62
2021/03/31 00:42:45;;;;;;;;;;;23.60;34.40;;;;;;1592135;73;740;-62
2021/03/31 00:44:47;;;;;;;;;;;23.50;34.50;;;;;;1599022;73;831;-64
2021/03/31 00:46:49;;;;;;;;;;;23.60;34.50;;;;;;1598844;73;803;-62
2021/03/31 00:48:51;;;;;;;;;;;23.50;34.50;;;;;;1596935;73;1161;-62
2021/03/31 00:50:54;;;;;;;;;;;23.50;34.40;;;;;;1596450;73;1929;-61
2021/03/31 00:52:56;;;;;;;;;;;23.60;34.40;;;;;;1617240;73;1123;-64
2021/03/31 00:54:58;;;;;;;;;;;23.60;34.40;;;;;;1601949;73;746;-61
2021/03/31 00:57:00;;;;;;;;;;;23.50;34.40;;;;;;1613122;73;938;-62
2021/03/31 00:59:02;;;;;;;;;;;23.50;34.40;;;;;;1599297;73;1221;-62
2021/03/31 01:01:04;;;;;;;;;;;23.50;34.40;;;;;;1609652;73;797;-61
2021/03/31 01:03:05;;;;;;;;;;;23.50;34.50;;;;;;1598039;74;747;-61
2021/03/31 01:05:08;;;;;;;;;;;23.50;34.40;;;;;;1594162;73;803;-62
2021/03/31 01:07:10;;;;;;;;;;;23.50;34.50;;;;;;1594981;73;777;-60
2021/03/31 01:09:12;;;;;;;;;;;23.50;34.50;;;;;;1595422;73;1174;-61
2021/03/31 01:11:15;;;;;;;;;;;23.50;34.40;;;;;;1602205;73;1930;-62
2021/03/31 01:13:36;;;;;;;;;;;23.50;34.40;;;;;;1592565;73;762;-61
2021/03/31 01:15:39;;;;;;;;;;;23.50;34.40;;;;;;1595211;73;740;-61
2021/03/31 01:17:55;;;;;;;;;;;23.50;34.50;;;;;;1605478;73;777;-61
2021/03/31 01:20:01;;;;;;;;;;;23.50;34.40;;;;;;1597364;73;1088;-61
2021/03/31 01:22:14;;;;;;;;;;;23.50;34.50;;;;;;1600052;73;1141;-62
2021/03/31 01:24:17;;;;;;;;;;;23.50;34.60;;;;;;1589921;73;748;-60
2021/03/31 01:26:21;;;;;;;;;;;23.50;34.70;;;;;;1594734;73;795;-62
2021/03/31 01:28:30;;;;;;;;;;;23.50;34.50;;;;;;1591274;73;1154;-63
2021/03/31 01:30:50;;;;;;;;;;;23.50;34.70;;;;;;1596227;73;741;-64
2021/03/31 01:33:10;;;;;;;;;;;23.40;34.30;;;;;;1592482;73;1941;-61
2021/03/31 01:35:14;;;;;;;;;;;23.40;34.30;;;;;;1596512;73;791;-64
2021/03/31 01:37:17;;;;;;;;;;;23.40;34.40;;;;;;1586599;73;1417;-60
2021/03/31 01:39:19;;;;;;;;;;;23.50;34.60;;;;;;1584977;74;1097;-61
2021/03/31 01:41:21;;;;;;;;;;;23.40;34.60;;;;;;1595811;73;788;-65
2021/03/31 01:43:24;;;;;;;;;;;23.40;34.70;;;;;;1593039;73;814;-66
2021/03/31 01:45:27;;;;;;;;;;;23.30;34.10;;;;;;1594060;73;761;-62
2021/03/31 01:47:30;;;;;;;;;;;23.30;33.40;;;;;;1594806;74;769;-62
2021/03/31 01:49:31;;;;;;;;;;;23.30;33.70;;;;;;1595374;73;1156;-64
2021/03/31 01:51:33;;;;;;;;;;;23.30;33.80;;;;;;1596240;73;1941;-63
2021/03/31 01:53:35;;;;;;;;;;;23.40;33.70;;;;;;1602248;73;757;-65
2021/03/31 01:55:37;;;;;;;;;;;23.40;33.80;;;;;;1593359;73;798;-62
2021/03/31 01:57:39;;;;;;;;;;;23.40;33.60;;;;;;1595703;73;780;-63
2021/03/31 01:59:42;;;;;;;;;;;23.30;33.80;;;;;;1595047;73;1230;-62
2021/03/31 02:01:44;;;;;;;;;;;23.40;33.50;;;;;;1594520;73;746;-62
2021/03/31 02:03:46;;;;;;;;;;;23.40;33.70;;;;;;1595358;73;757;-63
2021/03/31 02:05:48;;;;;;;;;;;23.30;33.90;;;;;;1592023;73;862;-63
2021/03/31 02:07:50;;;;;;;;;;;23.40;33.60;;;;;;1601401;73;772;-63
2021/03/31 02:09:51;;;;;;;;;;;23.40;33.50;;;;;;1596346;73;1098;-64
2021/03/31 02:11:53;;;;;;;;;;;23.40;33.40;;;;;;1596631;73;1924;-63
2021/03/31 02:13:56;;;;;;;;;;;23.30;33.30;;;;;;1603967;73;765;-64
2021/03/31 02:15:58;;;;;;;;;;;23.30;33.40;;;;;;1598176;73;820;-63
2021/03/31 02:18:00;;;;;;;;;;;23.30;33.40;;;;;;1595527;73;770;-63
2021/03/31 02:20:02;;;;;;;;;;;23.30;33.30;;;;;;1597380;73;1131;-63
2021/03/31 02:22:05;;;;;;;;;;;23.30;33.40;;;;;;1594950;73;792;-63
2021/03/31 02:24:07;;;;;;;;;;;23.30;33.40;;;;;;1597008;73;735;-63
2021/03/31 02:26:09;;;;;;;;;;;23.30;33.40;;;;;;1596810;73;761;-60
2021/03/31 02:28:10;;;;;;;;;;;23.30;33.30;;;;;;1596917;74;1151;-62
2021/03/31 02:30:14;;;;;;;;;;;23.30;33.30;;;;;;1596024;73;751;-63
2021/03/31 02:32:16;;;;;;;;;;;23.30;33.40;;;;;;1596247;73;1960;-62
2021/03/31 02:34:18;;;;;;;;;;;23.40;33.40;;;;;;1596021;73;763;-63
2021/03/31 02:36:20;;;;;;;;;;;23.40;33.30;;;;;;1588793;73;753;-64
2021/03/31 02:38:22;;;;;;;;;;;23.30;33.40;;;;;;1595362;73;1143;-62
2021/03/31 02:40:24;;;;;;;;;;;23.40;33.40;;;;;;1593587;73;767;-62
2021/03/31 02:42:26;;;;;;;;;;;23.30;33.40;;;;;;1595788;73;823;-63
2021/03/31 02:44:28;;;;;;;;;;;23.40;33.30;;;;;;1595854;73;756;-64
2021/03/31 02:46:30;;;;;;;;;;;23.40;33.30;;;;;;1594524;73;744;-63
2021/03/31 02:48:32;;;;;;;;;;;23.30;33.20;;;;;;1603941;73;1150;-61
2021/03/31 02:50:34;;;;;;;;;;;23.30;33.30;;;;;;1588529;73;822;-64
2021/03/31 02:52:36;;;;;;;;;;;23.20;33.20;;;;;;1594708;73;1953;-63
2021/03/31 02:54:38;;;;;;;;;;;23.10;33.20;;;;;;1593432;73;788;-62
2021/03/31 02:56:41;;;;;;;;;;;23.10;33.40;;;;;;1592085;73;753;-63
2021/03/31 02:58:43;;;;;;;;;;;23.10;33.50;;;;;;1595499;73;1250;-63
2021/03/31 03:00:45;;;;;;;;;;;23.00;33.50;;;;;;1592694;73;785;-63
2021/03/31 03:02:47;;;;;;;;;;;23.00;33.60;;;;;;1588294;73;682;-63
2021/03/31 03:04:49;;;;;;;;;;;23.00;33.70;;;;;;1598191;73;675;-63
2021/03/31 03:06:51;;;;;;;;;;;23.00;33.90;;;;;;1589294;73;767;-63
2021/03/31 03:08:54;;;;;;;;;;;23.00;34.30;;;;;;1591670;73;1165;-64
2021/03/31 03:10:57;;;;;;;;;;;22.90;34.30;;;;;;1587702;73;811;-63
2021/03/31 03:12:59;;;;;;;;;;;22.90;34.30;;;;;;1596746;73;2105;-64
2021/03/31 03:15:01;;;;;;;;;;;22.90;34.30;;;;;;1587650;73;726;-63
2021/03/31 03:17:03;;;;;;;;;;;22.80;34.20;;;;;;1595427;73;762;-64
2021/03/31 03:19:05;;;;;;;;;;;22.90;34.40;;;;;;1591138;73;1181;-64
2021/03/31 03:21:07;;;;;;;;;;;22.90;34.50;;;;;;1594475;73;804;-64
2021/03/31 03:23:09;;;;;;;;;;;22.80;34.40;;;;;;1586634;73;756;-62
2021/03/31 03:25:11;;;;;;;;;;;22.80;34.40;;;;;;1588611;73;842;-64
2021/03/31 03:27:13;;;;;;;;;;;22.80;34.50;;;;;;1580262;73;986;-63
2021/03/31 03:29:15;;;;;;;;;;;22.80;34.40;;;;;;1587148;73;1161;-61
2021/03/31 03:31:17;;;;;;;;;;;22.80;34.40;;;;;;1593352;73;807;-62
2021/03/31 03:33:19;;;;;;;;;;;22.80;34.30;;;;;;1588726;73;1937;-62
2021/03/31 03:35:24;;;;;;;;;;;22.80;34.30;;;;;;1593870;73;734;-62
2021/03/31 03:37:26;;;;;;;;;;;22.80;34.20;;;;;;1586829;73;764;-65
2021/03/31 03:39:28;;;;;;;;;;;22.80;34.20;;;;;;1590687;73;1182;-63
2021/03/31 03:41:30;;;;;;;;;;;22.80;34.30;;;;;;1594349;73;748;-62
2021/03/31 03:43:31;;;;;;;;;;;22.80;34.10;;;;;;1583927;73;748;-61
2021/03/31 03:45:33;;;;;;;;;;;22.80;34.20;;;;;;1589064;73;742;-63
2021/03/31 03:47:36;;;;;;;;;;;22.80;34.20;;;;;;1586903;73;749;-63
2021/03/31 03:49:38;;;;;;;;;;;22.80;34.40;;;;;;1597403;73;1158;-64
2021/03/31 03:51:39;;;;;;;;;;;22.80;34.40;;;;;;1596944;73;748;-63
2021/03/31 03:53:41;;;;;;;;;;;22.80;34.40;;;;;;1589868;73;1945;-64
2021/03/31 03:55:43;;;;;;;;;;;22.80;34.30;;;;;;1589335;73;813;-64
2021/03/31 03:57:45;;;;;;;;;;;22.80;34.30;;;;;;1593732;73;764;-61
2021/03/31 03:59:47;;;;;;;;;;;22.80;34.20;;;;;;1596863;73;1235;-64
2021/03/31 04:01:49;;;;;;;;;;;22.80;34.20;;;;;;1596791;73;791;-63
2021/03/31 04:03:53;;;;;;;;;;;22.80;34.20;;;;;;1596708;73;780;-63
2021/03/31 04:05:55;;;;;;;;;;;22.80;34.10;;;;;;1595025;73;797;-63
2021/03/31 04:07:57;;;;;;;;;;;22.90;34.20;;;;;;1598734;73;732;-64
2021/03/31 04:09:59;;;;;;;;;;;22.80;33.90;;;;;;1598223;73;1155;-63
2021/03/31 04:12:00;;;;;;;;;;;22.90;34.20;;;;;;1591507;73;1930;-63
2021/03/31 04:14:02;;;;;;;;;;;22.80;33.90;;;;;;1595000;73;782;-63
2021/03/31 04:16:09;;;;;;;;;;;22.90;34.00;;;;;;1603553;73;742;-63
2021/03/31 04:18:11;;;;;;;;;;;22.90;34.00;;;;;;1597350;73;1177;-64
2021/03/31 04:20:13;;;;;;;;;;;22.90;33.90;;;;;;1594522;73;788;-64
2021/03/31 04:22:15;;;;;;;;;;;22.90;33.90;;;;;;1585812;73;806;-61
2021/03/31 04:24:17;;;;;;;;;;;22.90;33.80;;;;;;1593260;73;790;-64
2021/03/31 04:26:19;;;;;;;;;;;22.90;33.80;;;;;;1583762;73;817;-62
2021/03/31 04:28:21;;;;;;;;;;;23.00;33.70;;;;;;1585319;73;1159;-65
2021/03/31 04:30:23;;;;;;;;;;;23.00;33.40;;;;;;1586829;73;816;-62
2021/03/31 04:32:25;;;;;;;;;;;23.10;33.40;;;;;;1594985;73;1936;-65
2021/03/31 04:34:26;;;;;;;;;;;23.10;33.30;;;;;;1598151;73;749;-63
2021/03/31 04:36:31;;;;;;;;;;;23.10;33.30;;;;;;1588224;73;739;-65
2021/03/31 04:38:33;;;;;;;;;;;23.10;33.30;;;;;;1593626;73;1162;-63
2021/03/31 04:40:36;;;;;;;;;;;23.10;33.30;;;;;;1586816;73;746;-64
2021/03/31 04:42:38;;;;;;;;;;;23.10;33.30;;;;;;1575821;73;1333;-64
2021/03/31 04:44:40;;;;;;;;;;;23.20;33.10;;;;;;1589522;73;834;-64
2021/03/31 04:46:42;;;;;;;;;;;23.20;33.10;;;;;;1586711;73;771;-64
2021/03/31 04:48:44;;;;;;;;;;;23.10;33.10;;;;;;1581102;73;1142;-64
2021/03/31 04:50:46;;;;;;;;;;;23.30;33.20;;;;;;1598439;73;777;-64
2021/03/31 04:52:48;;;;;;;;;;;23.30;33.10;;;;;;1586927;73;1964;-63
2021/03/31 04:54:49;;;;;;;;;;;23.30;33.10;;;;;;1590681;73;804;-63
2021/03/31 04:56:51;;;;;;;;;;;23.20;33.10;;;;;;1584688;73;798;-64
2021/03/31 04:58:53;;;;;;;;;;;23.10;33.40;;;;;;1586386;73;1264;-63
2021/03/31 05:00:55;;;;;;;;;;;23.10;33.40;;;;;;1583986;73;822;-64
2021/03/31 05:02:57;;;;;;;;;;;23.10;33.30;;;;;;1586407;73;822;-66
2021/03/31 05:04:59;;;;;;;;;;;23.10;33.20;;;;;;1587446;73;820;-64
2021/03/31 05:07:01;;;;;;;;;;;23.10;33.20;;;;;;1596570;73;793;-63
2021/03/31 05:09:03;;;;;;;;;;;23.10;33.30;;;;;;1590307;73;1207;-63
2021/03/31 05:11:05;;;;;;;;;;;23.10;33.10;;;;;;1580364;73;770;-63
2021/03/31 05:13:07;;;;;;;;;;;23.10;33.20;;;;;;1592181;73;1941;-64
2021/03/31 05:15:09;;;;;;;;;;;23.10;33.10;;;;;;1594917;73;761;-63
2021/03/31 05:17:11;;;;;;;;;;;23.10;33.10;;;;;;1601083;73;779;-63
2021/03/31 05:19:12;;;;;;;;;;;23.10;33.10;;;;;;1593589;73;1168;-63
2021/03/31 05:21:14;;;;;;;;;;;23.00;33.10;;;;;;1593618;73;814;-64
2021/03/31 05:23:16;;;;;;;;;;;23.00;33.00;;;;;;1589208;73;801;-61
2021/03/31 05:25:18;;;;;;;;;;;23.00;33.10;;;;;;1589206;73;689;-60
2021/03/31 05:27:20;;;;;;;;;;;22.90;33.30;;;;;;1584889;73;805;-61
2021/03/31 05:29:22;;;;;;;;;;;23.00;33.50;;;;;;1590308;73;1158;-63
2021/03/31 05:31:24;;;;;;;;;;;22.90;33.60;;;;;;1587008;73;775;-66
2021/03/31 05:33:25;;;;;;;;;;;23.00;33.60;;;;;;1597888;73;1933;-63
2021/03/31 05:35:27;;;;;;;;;;;23.00;33.70;;;;;;1596135;73;799;-63
2021/03/31 05:37:29;;;;;;;;;;;23.00;33.30;;;;;;1597088;73;809;-63
2021/03/31 05:39:31;;;;;;;;;;;23.10;33.30;;;;;;1594461;73;1233;-62
2021/03/31 05:41:33;;;;;;;;;;;23.00;33.00;;;;;;1593693;73;730;-61
2021/03/31 05:43:36;;;;;;;;;;;23.10;32.80;;;;;;1596351;73;749;-64
2021/03/31 05:45:39;;;;;;;;;;;23.10;32.50;;;;;;1597152;73;975;-66
2021/03/31 05:47:46;;;;;;;;;;;23.20;32.20;;;;;;1595284;73;746;-62
2021/03/31 05:49:45;;;;;;;;;;;23.20;32.20;;;;;;1592405;73;1153;-62
2021/03/31 05:51:47;;;;;;;;;;;23.20;31.90;;;;;;1597350;73;808;-64
2021/03/31 05:53:49;;;;;;;;;;;23.20;31.70;;;;;;1594589;73;1937;-64
2021/03/31 05:55:50;;;;;;;;;;;23.30;31.50;;;;;;1596103;73;761;-68
2021/03/31 05:57:52;;;;;;;;;;;23.30;31.00;;;;;;1591672;73;826;-63
2021/03/31 05:59:54;;;;;;;;;;;23.30;31.30;;;;;;1592864;73;1242;-65
2021/03/31 06:01:56;;;;;;;;;;;23.30;31.00;;;;;;1590215;73;775;-65
2021/03/31 06:03:58;;;;;;;;;;;23.20;31.00;;;;;;1572533;74;767;-64
2021/03/31 06:06:00;;;;;;;;;;;23.10;30.80;;;;;;1590284;73;735;-63
2021/03/31 06:08:02;;;;;;;;;;;23.10;31.20;;;;;;1593185;73;663;-64
2021/03/31 06:10:14;;;;;;;;;;;23.10;31.20;;;;;;1595641;73;1077;-65
2021/03/31 06:12:16;;;;;;;;;;;23.00;31.30;;;;;;1593250;73;703;-63
2021/03/31 06:14:19;;;;;;;;;;;23.10;31.60;;;;;;1593297;73;1946;-66
2021/03/31 06:16:34;;;;;;;;;;;23.10;28.70;;;;;;1585103;73;1624;-66
2021/03/31 06:18:36;;;;;;;;;;;23.00;28.00;;;;;;1596662;73;1160;-66
2021/03/31 06:20:39;;;;;;;;;;;23.00;27.20;;;;;;1598432;73;772;-66
2021/03/31 06:23:05;;;;;;;;;;;22.90;26.80;;;;;;1600566;73;739;-69
2021/03/31 06:25:01;;;;;;;;;;;22.80;26.70;;;;;;1585486;73;1577;-68
2021/03/31 06:27:03;;;;;;;;;;;22.70;26.50;;;;;;1577673;73;1402;-68
2021/03/31 06:29:05;;;;;;;;;;;22.60;26.40;;;;;;1593684;73;1156;-69
2021/03/31 06:31:16;;;;;;;;;;;22.60;27.20;;;;;;1595902;73;700;-69
2021/03/31 06:33:18;;;;;;;;;;;22.60;26.70;;;;;;1588073;73;1934;-67
2021/03/31 06:35:23;;;;;;;;;;;22.60;26.70;;;;;;1586046;73;736;-68
2021/03/31 06:37:27;;;;;;;;;;;22.60;26.70;;;;;;1585613;73;1671;-69
2021/03/31 06:39:34;;;;;;;;;;;22.60;26.50;;;;;;1591668;73;1424;-68
2021/03/31 06:41:37;;;;;;;;;;;22.60;26.40;;;;;;1590113;73;1767;-68
2021/03/31 06:43:45;;;;;;;;;;;22.50;26.20;;;;;;1586626;73;730;-69
2021/03/31 06:45:51;;;;;;;;;;;22.60;26.20;;;;;;1586749;73;1546;-67
2021/03/31 06:47:57;;;;;;;;;;;22.50;25.80;;;;;;1587815;73;1526;-69
2021/03/31 06:49:55;;;;;;;;;;;22.50;25.60;;;;;;1582741;73;1586;-69
2021/03/31 06:52:04;;;;;;;;;;;22.50;25.90;;;;;;1588934;73;744;-68
2021/03/31 06:54:19;;;;;;;;;;;22.40;25.70;;;;;;1579512;73;1938;-68
2021/03/31 06:56:28;;;;;;;;;;;22.40;25.60;;;;;;1580129;73;763;-68
2021/03/31 06:58:29;;;;;;;;;;;22.30;25.80;;;;;;1591728;73;1164;-68
2021/03/31 07:00:32;;;;;;;;;;;22.30;25.80;;;;;;1585468;73;753;-65
2021/03/31 07:02:34;;;;;;;;;;;22.30;26.10;;;;;;1588903;73;808;-66
2021/03/31 07:04:36;;;;;;;;;;;22.30;25.90;;;;;;1584935;73;758;-68
2021/03/31 07:06:38;;;;;;;;;;;22.30;26.10;;;;;;1598301;73;788;-67
2021/03/31 07:08:40;;;;;;;;;;;22.40;25.80;;;;;;1590747;73;1245;-69
2021/03/31 07:10:42;;;;;;;;;;;22.40;25.50;;;;;;1597069;73;798;-68
2021/03/31 07:12:47;;;;;;;;;;;22.50;25.90;;;;;;1605043;73;682;-69
2021/03/31 07:14:49;;;;;;;;;;;22.60;25.70;;;;;;1594223;73;1953;-68
2021/03/31 07:16:51;;;;;;;;;;;22.60;25.50;;;;;;1597946;73;781;-69
2021/03/31 07:18:53;;;;;;;;;;;22.70;25.30;;;;;;1597680;73;1166;-67
2021/03/31 07:20:55;;;;;;;;;;;22.80;25.40;;;;;;1590706;73;691;-68
2021/03/31 07:22:58;;;;;;;;;;;22.90;25.50;;;;;;1594295;73;751;-69
2021/03/31 07:25:01;;;;;;;;;;;22.80;25.10;;;;;;1582403;73;735;-68
2021/03/31 07:27:03;;;;;;;;;;;22.80;25.20;;;;;;1589049;73;688;-69
2021/03/31 07:29:05;;;;;;;;;;;22.80;25.20;;;;;;1593604;73;1189;-69
2021/03/31 07:31:09;;;;;;;;;;;22.80;25.20;;;;;;1595189;73;698;-67
2021/03/31 07:33:18;;;;;;;;;;;22.80;25.00;;;;;;1590547;73;1943;-70
2021/03/31 07:35:21;;;;;;;;;;;22.80;25.20;;;;;;1587181;73;1517;-65
2021/03/31 07:37:22;;;;;;;;;;;22.80;25.50;;;;;;1594802;73;1091;-68
2021/03/31 07:39:25;;;;;;;;;;;22.70;25.50;;;;;;1596099;73;1173;-68
2021/03/31 07:41:27;;;;;;;;;;;22.60;25.70;;;;;;1588125;73;795;-67
2021/03/31 07:43:38;;;;;;;;;;;22.50;25.60;;;;;;1583252;73;825;-69
2021/03/31 07:45:41;;;;;;;;;;;22.40;26.50;;;;;;1587557;73;727;-68
2021/03/31 07:47:44;;;;;;;;;;;22.20;27.00;;;;;;1586172;73;752;-66
2021/03/31 07:49:47;;;;;;;;;;;22.20;27.20;;;;;;1560336;74;1168;-69
2021/03/31 07:52:00;;;;;;;;;;;22.30;27.60;;;;;;1591815;73;759;-70
2021/03/31 07:54:03;;;;;;;;;;;22.40;27.60;;;;;;1584867;73;1934;-69
2021/03/31 07:56:06;;;;;;;;;;;22.30;27.70;;;;;;1590859;73;690;-68
2021/03/31 07:58:15;;;;;;;;;;;22.40;27.60;;;;;;1590782;73;1139;-68
2021/03/31 08:00:18;;;;;;;;;;;22.30;27.60;;;;;;1590556;73;668;-69
2021/03/31 08:02:22;;;;;;;;;;;22.40;27.70;;;;;;1588048;73;1607;-69
2021/03/31 08:04:24;;;;;;;;;;;22.60;27.30;;;;;;1592599;73;1545;-69
2021/03/31 08:06:27;;;;;;;;;;;22.50;27.30;;;;;;1591865;73;760;-69
2021/03/31 08:08:29;;;;;;;;;;;22.60;27.20;;;;;;1560514;74;1273;-69
2021/03/31 08:10:32;;;;;;;;;;;22.60;27.20;;;;;;1589859;73;792;-69
2021/03/31 08:12:34;;;;;;;;;;;22.70;27.10;;;;;;1591355;73;713;-66
2021/03/31 08:14:42;;;;;;;;;;;22.60;26.90;;;;;;1584697;73;1935;-68
2021/03/31 08:16:45;;;;;;;;;;;22.60;27.00;;;;;;1586177;73;802;-68
2021/03/31 08:18:47;;;;;;;;;;;22.70;27.00;;;;;;1583044;73;1202;-67
2021/03/31 08:20:49;;;;;;;;;;;22.60;26.90;;;;;;1579227;73;759;-68
2021/03/31 08:22:51;;;;;;;;;;;22.50;26.90;;;;;;1586754;73;762;-69
2021/03/31 08:24:53;;;;;;;;;;;22.60;27.10;;;;;;1584904;73;764;-70
2021/03/31 08:26:58;;;;;;;;;;;22.60;27.30;;;;;;1586016;73;739;-69
2021/03/31 08:29:00;;;;;;;;;;;22.60;27.20;;;;;;1578384;73;1270;-69
2021/03/31 08:31:04;;;;;;;;;;;22.80;27.20;;;;;;1574299;73;802;-64
2021/03/31 08:33:06;;;;;;;;;;;22.90;27.30;;;;;;1587023;73;1545;-69
2021/03/31 08:35:08;;;;;;;;;;;22.90;27.30;;;;;;1595319;73;1938;-70
2021/03/31 08:37:21;;;;;;;;;;;23.00;27.40;;;;;;1569568;74;758;-70
2021/03/31 08:39:23;;;;;;;;;;;23.10;27.00;;;;;;1570797;73;1252;-67
2021/03/31 08:41:25;;;;;;;;;;;23.00;27.00;;;;;;1597013;73;755;-71
2021/03/31 08:43:29;;;;;;;;;;;23.00;27.20;;;;;;1585594;73;751;-69
2021/03/31 08:45:38;;;;;;;;;;;23.00;27.30;;;;;;1595986;73;1293;-70
2021/03/31 08:47:40;;;;;;;;;;;23.10;27.40;;;;;;1589154;73;742;-69
2021/03/31 08:49:42;;;;;;;;;;;23.20;27.30;;;;;;1598031;73;1130;-69
2021/03/31 08:51:47;;;;;;;;;;;23.20;27.10;;;;;;1596648;73;728;-65
2021/03/31 08:53:48;;;;;;;;;;;23.20;27.10;;;;;;1592512;73;1919;-67
2021/03/31 08:55:50;;;;;;;;;;;23.30;27.20;;;;;;1594020;73;818;-68
2021/03/31 08:57:51;;;;;;;;;;;23.40;26.90;;;;;;1591900;73;785;-69
2021/03/31 08:59:56;;;;;;;;;;;23.20;26.70;;;;;;1592394;73;1212;-70
2021/03/31 09:01:58;;;;;;;;;;;23.30;27.00;;;;;;1593708;73;790;-70
2021/03/31 09:04:15;;;;;;;;;;;23.30;26.80;;;;;;1602540;73;733;-70
2021/03/31 09:06:19;;;;;;;;;;;23.40;26.90;;;;;;1586724;73;740;-69
2021/03/31 09:08:24;;;;;;;;;;;23.40;26.80;;;;;;1595226;73;1162;-69
2021/03/31 09:10:27;;;;;;;;;;;23.40;26.70;;;;;;1598542;73;757;-71
2021/03/31 09:12:29;;;;;;;;;;;23.50;26.80;;;;;;1592240;73;737;-68
2021/03/31 09:14:31;;;;;;;;;;;23.50;26.90;;;;;;1596023;73;1937;-70
2021/03/31 09:16:32;;;;;;;;;;;23.40;26.80;;;;;;1601304;73;774;-66
2021/03/31 09:18:36;;;;;;;;;;;23.50;26.90;;;;;;1597168;73;1095;-70
2021/03/31 09:20:38;;;;;;;;;;;23.40;26.20;;;;;;1588839;73;1976;-70
2021/03/31 09:22:40;;;;;;;;;;;23.40;26.00;;;;;;1551979;74;1171;-69
2021/03/31 09:24:42;;;;;;;;;;;23.40;26.00;;;;;;1585180;73;787;-69
2021/03/31 09:26:46;;;;;;;;;;;23.30;26.30;;;;;;1591207;73;805;-68
2021/03/31 09:28:47;;;;;;;;;;;23.40;26.30;;;;;;1581093;73;1179;-67
2021/03/31 09:30:51;;;;;;;;;;;23.30;26.10;;;;;;1595209;73;805;-70
2021/03/31 09:32:59;;;;;;;;;;;23.40;26.30;;;;;;1598723;73;804;-69
2021/03/31 09:34:56;;;;;;;;;;;23.40;26.30;;;;;;1597290;73;1945;-69
2021/03/31 09:37:11;;;;;;;;;;;23.40;26.30;;;;;;1595326;73;778;-67
2021/03/31 09:39:13;;;;;;;;;;;23.40;26.10;;;;;;1589753;73;1178;-66
2021/03/31 09:41:16;;;;;;;;;;;23.30;26.10;;;;;;1599330;73;817;-67
2021/03/31 09:43:18;;;;;;;;;;;23.20;26.00;;;;;;1596423;73;749;-65
2021/03/31 09:45:22;;;;;;;;;;;23.30;26.10;;;;;;1572673;74;1132;-67
2021/03/31 09:47:24;;;;;;;;;;;23.40;26.20;;;;;;1589103;73;771;-71
2021/03/31 09:49:26;;;;;;;;;;;23.40;26.10;;;;;;1623867;70;3106;-66
2021/03/31 09:51:30;;;;;;;;;;;23.50;26.10;;;;;;1669171;70;684;-66
2021/03/31 09:53:32;;;;;;;;;;;23.50;26.00;;;;;;1667990;70;1243;-66
2021/03/31 09:55:36;;;;;;;;;;;23.40;25.40;;;;;;1669978;70;1941;-65
2021/03/31 09:57:37;;;;;;;;;;;23.30;25.40;;;;;;1668914;70;1574;-66
2021/03/31 09:59:40;;;;;;;;;;;23.40;25.30;;;;;;1678981;70;1231;-66
2021/03/31 10:01:42;;;;;;;;;;;23.40;25.40;;;;;;1655760;70;822;-63
2021/03/31 10:03:44;;;;;;;;;;;23.30;25.30;;;;;;1666966;70;728;-66
2021/03/31 10:05:46;;;;;;;;;;;23.30;25.50;;;;;;1669232;70;750;-65
2021/03/31 10:07:55;;;;;;;;;;;23.30;25.60;;;;;;1676542;70;689;-66
2021/03/31 10:09:57;;;;;;;;;;;23.20;25.10;;;;;;1671287;70;1168;-67
2021/03/31 10:11:59;;;;;;;;;;;23.10;25.60;;;;;;1666625;70;695;-66
2021/03/31 10:14:02;;;;;;;;;;;23.10;25.60;;;;;;1670852;70;829;-65
2021/03/31 10:16:06;;;;;;;;;;;23.10;25.70;;;;;;1669385;70;1926;-66
2021/03/31 10:18:10;;;;;;;;;;;23.00;25.40;;;;;;1670358;70;749;-63
2021/03/31 10:20:17;;;;;;;;;;;23.10;25.70;;;;;;1668606;70;1167;-66
2021/03/31 10:22:19;;;;;;;;;;;23.10;25.80;;;;;;1670863;70;900;-63
2021/03/31 10:24:23;;;;;;;;;;;23.00;25.70;;;;;;1665853;70;782;-66
2021/03/31 10:26:25;;;;;;;;;;;23.20;25.80;;;;;;1662518;70;1788;-67
2021/03/31 10:28:34;;;;;;;;;;;23.20;25.70;;;;;;1670114;70;920;-65
2021/03/31 10:30:36;;;;;;;;;;;23.20;25.70;;;;;;1656916;70;626;-65
2021/03/31 10:32:37;;;;;;;;;;;23.20;25.90;;;;;;1651207;70;658;-68
2021/03/31 10:34:40;;;;;;;;;;;23.20;25.60;;;;;;1653221;70;1945;-61
2021/03/31 10:39:30;;;;;;;;;;;23.20;26.50;;;;;;1657585;70;1187;-62
2021/03/31 10:48:08;;;;;;;;;;;23.20;26.20;;;;;;1669160;70;779;-62
2021/03/31 10:50:06;;;;;;;;;;;23.20;26.10;;;;;;1666805;70;1622;-64
2021/03/31 10:52:26;;;;;;;;;;;23.20;26.20;;;;;;1658385;70;767;-61
2021/03/31 10:54:27;;;;;;;;;;;23.10;26.20;;;;;;1665337;70;1941;-62
2021/03/31 10:56:30;;;;;;;;;;;23.10;26.70;;;;;;1658897;70;795;-62
2021/03/31 10:58:32;;;;;;;;;;;23.20;26.50;;;;;;1666424;70;768;-66
2021/03/31 11:00:35;;;;;;;;;;;23.30;26.60;;;;;;1666507;70;775;-64
2021/03/31 11:02:37;;;;;;;;;;;23.30;26.50;;;;;;1657825;70;793;-64
2021/03/31 11:04:39;;;;;;;;;;;23.30;26.50;;;;;;1666365;70;793;-66
2021/03/31 11:06:41;;;;;;;;;;;23.20;26.00;;;;;;1665191;70;794;-61
2021/03/31 11:08:42;;;;;;;;;;;23.20;26.60;;;;;;1665943;70;1153;-62
2021/03/31 11:10:44;;;;;;;;;;;23.10;26.50;;;;;;1668964;70;794;-62
2021/03/31 11:12:46;;;;;;;;;;;23.10;26.50;;;;;;1666475;70;739;-62
2021/03/31 11:14:48;;;;;;;;;;;23.20;26.50;;;;;;1667581;70;1933;-61
2021/03/31 11:16:55;;;;;;;;;;;23.20;26.40;;;;;;1673798;70;688;-63
2021/03/31 11:19:01;;;;;;;;;;;23.20;26.20;;;;;;1668426;70;1576;-62
2021/03/31 11:25:52;;;;;;;;;;;23.10;27.20;;;;;;1653397;70;671;-61
2021/03/31 11:27:53;;;;;;;;;;;23.20;26.80;;;;;;1669686;70;1548;-62
2021/03/31 11:29:55;;;;;;;;;;;23.10;27.10;;;;;;1662226;70;1169;-61
2021/03/31 11:31:57;;;;;;;;;;;23.00;27.00;;;;;;1660280;70;749;-61
2021/03/31 11:34:00;;;;;;;;;;;23.10;27.10;;;;;;1659836;70;756;-62
2021/03/31 11:36:02;;;;;;;;;;;23.00;26.30;;;;;;1664775;70;1933;-62
2021/03/31 11:38:04;;;;;;;;;;;22.90;27.00;;;;;;1667933;70;683;-62
2021/03/31 11:40:06;;;;;;;;;;;22.90;27.40;;;;;;1669872;70;1178;-63
2021/03/31 11:42:08;;;;;;;;;;;22.90;27.00;;;;;;1657918;70;664;-64
2021/03/31 11:44:10;;;;;;;;;;;23.00;27.30;;;;;;1667165;70;659;-63
2021/03/31 11:46:12;;;;;;;;;;;23.00;27.30;;;;;;1667454;70;707;-62
2021/03/31 11:48:14;;;;;;;;;;;22.90;27.20;;;;;;1667900;70;821;-63
2021/03/31 11:50:16;;;;;;;;;;;22.90;27.20;;;;;;1666255;70;1172;-63
2021/03/31 11:52:18;;;;;;;;;;;22.90;27.10;;;;;;1666562;70;694;-65
2021/03/31 11:54:20;;;;;;;;;;;22.80;27.10;;;;;;1663138;70;740;-62
2021/03/31 11:56:22;;;;;;;;;;;22.80;27.40;;;;;;1659051;70;1935;-62
2021/03/31 11:58:24;;;;;;;;;;;22.80;27.40;;;;;;1655992;70;740;-62
2021/03/31 12:00:26;;;;;;;;;;;22.80;27.30;;;;;;1669331;70;1165;-62
2021/03/31 12:02:28;;;;;;;;;;;22.70;27.20;;;;;;1666315;70;800;-61
2021/03/31 12:04:29;;;;;;;;;;;22.70;27.30;;;;;;1663785;70;793;-69
2021/03/31 12:06:31;;;;;;;;;;;22.80;27.30;;;;;;1667775;70;746;-61
2021/03/31 12:08:33;;;;;;;;;;;22.80;27.30;;;;;;1669289;70;631;-62
2021/03/31 12:10:35;;;;;;;;;;;22.90;27.60;;;;;;1669624;70;814;-64
2021/03/31 12:12:37;;;;;;;;;;;22.90;27.70;;;;;;1664361;70;804;-62
2021/03/31 12:14:39;;;;;;;;;;;22.90;27.50;;;;;;1667111;70;779;-62
2021/03/31 12:16:41;;;;;;;;;;;22.90;27.20;;;;;;1665977;70;1912;-64
2021/03/31 12:18:43;;;;;;;;;;;22.90;27.30;;;;;;1662934;70;1180;-64
2021/03/31 12:20:44;;;;;;;;;;;22.80;27.50;;;;;;1664196;70;767;-62
2021/03/31 12:22:46;;;;;;;;;;;22.90;27.70;;;;;;1667474;70;700;-61
2021/03/31 12:24:48;;;;;;;;;;;22.90;27.80;;;;;;1674060;70;741;-62
2021/03/31 12:26:50;;;;;;;;;;;22.80;27.70;;;;;;1660683;70;768;-63
2021/03/31 12:28:58;;;;;;;;;;;22.80;27.80;;;;;;1667890;70;1164;-61